createdAt,value
2023-05-15T00:00:51.854Z,10.27
2023-05-15T00:03:29.563Z,10.24
2023-05-15T00:05:57.201Z,10.22
2023-05-15T00:08:24.651Z,10.20
2023-05-15T00:11:00.884Z,10.18
2023-05-15T00:13:29.988Z,10.16
2023-05-15T00:15:57.598Z,10.18
2023-05-15T00:18:25.268Z,10.18
2023-05-15T00:20:53.473Z,10.18
2023-05-15T00:23:21.088Z,10.16
2023-05-15T00:25:48.616Z,10.15
2023-05-15T00:28:16.063Z,10.14
2023-05-15T00:30:43.583Z,10.12
2023-05-15T00:33:11.077Z,10.10
2023-05-15T00:35:38.562Z,10.10
2023-05-15T00:38:06.104Z,10.10
2023-05-15T00:40:33.598Z,10.09
2023-05-15T00:43:01.207Z,10.09
2023-05-15T00:45:28.775Z,10.10
2023-05-15T00:47:56.310Z,10.10
2023-05-15T00:50:24.390Z,10.11
2023-05-15T00:52:51.916Z,10.11
2023-05-15T00:55:19.610Z,10.13
2023-05-15T00:57:47.247Z,10.13
2023-05-15T01:00:16.897Z,10.13
2023-05-15T01:02:44.484Z,10.15
2023-05-15T01:05:12.294Z,10.17
2023-05-15T01:07:39.802Z,10.21
2023-05-15T01:10:07.267Z,10.22
2023-05-15T01:12:34.794Z,10.26
2023-05-15T01:15:02.296Z,10.27
2023-05-15T01:17:29.841Z,10.29
2023-05-15T01:19:57.492Z,10.29
2023-05-15T01:22:25.249Z,10.30
2023-05-15T01:24:52.718Z,10.31
2023-05-15T01:27:20.588Z,10.31
2023-05-15T01:29:48.058Z,10.33
2023-05-15T01:32:17.191Z,10.34
2023-05-15T01:34:46.188Z,10.36
2023-05-15T01:37:13.679Z,10.36
2023-05-15T01:39:41.175Z,10.38
2023-05-15T01:42:08.672Z,10.38
2023-05-15T01:44:36.179Z,10.38
2023-05-15T01:47:03.732Z,10.35
2023-05-15T01:49:31.592Z,10.32
2023-05-15T01:51:59.176Z,10.29
2023-05-15T01:54:26.667Z,10.27
2023-05-15T01:56:54.161Z,10.24
2023-05-15T01:59:21.845Z,10.23
2023-05-15T02:01:49.386Z,10.22
2023-05-15T02:04:16.967Z,10.24
2023-05-15T02:06:44.871Z,10.22
2023-05-15T02:09:12.542Z,10.22
2023-05-15T02:11:40.024Z,10.24
2023-05-15T02:14:07.512Z,10.26
2023-05-15T02:16:35.266Z,10.24
2023-05-15T02:19:02.760Z,10.20
2023-05-15T02:21:30.763Z,10.20
2023-05-15T02:23:58.243Z,10.21
2023-05-15T02:26:25.987Z,10.24
2023-05-15T02:28:53.458Z,10.26
2023-05-15T02:31:22.286Z,10.25
2023-05-15T02:33:51.790Z,10.25
2023-05-15T02:36:19.382Z,10.21
2023-05-15T02:38:46.830Z,10.18
2023-05-15T02:41:14.296Z,10.16
2023-05-15T02:43:41.819Z,10.14
2023-05-15T02:46:09.338Z,10.14
2023-05-15T02:48:36.822Z,10.16
2023-05-15T02:51:04.302Z,10.19
2023-05-15T02:53:31.847Z,10.22
2023-05-15T02:55:59.347Z,10.26
2023-05-15T02:58:26.810Z,10.28
2023-05-15T03:00:54.472Z,10.31
2023-05-15T03:03:21.956Z,10.36
2023-05-15T03:05:49.771Z,10.39
2023-05-15T03:08:17.247Z,10.42
2023-05-15T03:10:44.743Z,10.41
2023-05-15T03:13:12.278Z,10.40
2023-05-15T03:15:39.769Z,10.40
2023-05-15T03:18:07.522Z,10.39
2023-05-15T03:20:35.096Z,10.40
2023-05-15T03:23:02.572Z,10.40
2023-05-15T03:25:30.092Z,10.39
2023-05-15T03:27:57.681Z,10.40
2023-05-15T03:30:25.146Z,10.40
2023-05-15T03:32:52.693Z,10.38
2023-05-15T03:35:20.260Z,10.36
2023-05-15T03:37:47.826Z,10.31
2023-05-15T03:40:15.339Z,10.30
2023-05-15T03:42:42.855Z,10.29
2023-05-15T03:45:10.362Z,10.31
2023-05-15T03:47:37.864Z,10.30
2023-05-15T03:50:05.467Z,10.29
2023-05-15T03:52:33.007Z,10.29
2023-05-15T03:55:00.851Z,10.27
2023-05-15T03:57:28.631Z,10.24
2023-05-15T03:59:56.151Z,10.21
2023-05-15T04:02:23.778Z,10.19
2023-05-15T04:04:51.703Z,10.20
2023-05-15T04:07:19.270Z,10.23
2023-05-15T04:09:46.773Z,10.24
2023-05-15T04:12:14.259Z,10.27
2023-05-15T04:14:41.717Z,10.32
2023-05-15T04:17:09.182Z,10.34
2023-05-15T04:19:36.692Z,10.36
2023-05-15T04:22:04.167Z,10.41
2023-05-15T04:24:31.635Z,10.43
2023-05-15T04:26:59.215Z,10.45
2023-05-15T04:29:26.731Z,10.48
2023-05-15T04:31:54.268Z,10.52
2023-05-15T04:34:21.824Z,10.57
2023-05-15T04:36:49.357Z,10.60
2023-05-15T04:39:16.799Z,10.64
2023-05-15T04:41:44.323Z,10.65
2023-05-15T04:44:11.924Z,10.67
2023-05-15T04:46:39.731Z,10.68
2023-05-15T04:49:07.395Z,10.66
2023-05-15T04:51:35.150Z,10.64
2023-05-15T04:54:02.722Z,10.65
2023-05-15T04:56:30.694Z,10.68
2023-05-15T04:58:58.161Z,10.78
2023-05-15T05:01:26.063Z,10.81
2023-05-15T05:03:53.797Z,10.77
2023-05-15T05:06:21.492Z,10.76
2023-05-15T05:08:49.066Z,10.77
2023-05-15T05:11:16.556Z,10.77
2023-05-15T05:13:43.995Z,10.76
2023-05-15T05:16:11.641Z,10.77
2023-05-15T05:18:39.254Z,10.75
2023-05-15T05:21:06.748Z,10.75
2023-05-15T05:23:34.253Z,10.76
2023-05-15T05:26:03.539Z,10.77
2023-05-15T05:28:31.643Z,10.76
2023-05-15T05:30:59.185Z,10.77
2023-05-15T05:33:26.737Z,10.75
2023-05-15T05:35:54.234Z,10.74
2023-05-15T05:38:21.731Z,10.75
2023-05-15T05:40:49.259Z,10.76
2023-05-15T05:43:16.717Z,10.79
2023-05-15T05:45:44.196Z,10.80
2023-05-15T05:48:11.798Z,10.82
2023-05-15T05:50:39.358Z,10.85
2023-05-15T05:53:06.903Z,10.84
2023-05-15T05:55:34.470Z,10.84
2023-05-15T05:58:03.299Z,10.86
2023-05-15T06:00:32.306Z,10.87
2023-05-15T06:03:00.233Z,10.86
2023-05-15T06:05:27.987Z,10.86
2023-05-15T06:07:55.635Z,10.88
2023-05-15T06:10:23.336Z,10.88
2023-05-15T06:12:51.029Z,10.90
2023-05-15T06:15:18.545Z,10.94
2023-05-15T06:17:46.152Z,10.97
2023-05-15T06:20:14.263Z,11.01
2023-05-15T06:22:41.794Z,11.03
2023-05-15T06:25:13.820Z,11.05
2023-05-15T06:27:41.367Z,11.07
2023-05-15T06:30:08.842Z,11.14
2023-05-15T06:32:36.586Z,11.15
2023-05-15T06:35:04.136Z,11.15
2023-05-15T06:37:31.620Z,11.14
2023-05-15T06:39:59.214Z,11.13
2023-05-15T06:42:27.173Z,11.13
2023-05-15T06:44:54.643Z,11.13
2023-05-15T06:47:22.171Z,11.15
2023-05-15T06:49:49.748Z,11.20
2023-05-15T06:52:17.226Z,11.19
2023-05-15T06:54:44.908Z,11.21
2023-05-15T06:57:12.429Z,11.24
2023-05-15T06:59:39.944Z,11.27
2023-05-15T07:02:07.630Z,11.34
2023-05-15T07:04:35.671Z,11.41
2023-05-15T07:07:03.489Z,11.45
2023-05-15T07:09:31.203Z,11.55
2023-05-15T07:11:58.759Z,11.61
2023-05-15T07:14:26.196Z,11.63
2023-05-15T07:16:53.785Z,11.70
2023-05-15T07:19:21.634Z,11.80
2023-05-15T07:21:49.225Z,11.88
2023-05-15T07:24:16.744Z,11.97
2023-05-15T07:26:57.415Z,12.01
2023-05-15T07:29:26.903Z,12.07
2023-05-15T07:31:54.448Z,12.12
2023-05-15T07:34:23.499Z,12.17
2023-05-15T07:36:51.130Z,12.26
2023-05-15T07:39:18.667Z,12.32
2023-05-15T07:41:47.123Z,12.37
2023-05-15T07:44:14.668Z,12.42
2023-05-15T07:46:42.247Z,12.46
2023-05-15T07:49:09.761Z,12.49
2023-05-15T07:51:37.296Z,12.54
2023-05-15T07:54:04.830Z,12.58
2023-05-15T07:56:32.847Z,12.60
2023-05-15T07:59:00.550Z,12.63
2023-05-15T08:01:30.004Z,12.66
2023-05-15T08:03:58.640Z,12.71
2023-05-15T08:06:26.262Z,12.74
2023-05-15T08:08:53.851Z,12.76
2023-05-15T08:11:22.015Z,12.81
2023-05-15T08:13:49.801Z,12.87
2023-05-15T08:16:17.363Z,12.96
2023-05-15T08:18:44.951Z,13.10
2023-05-15T08:21:12.558Z,13.15
2023-05-15T08:23:40.072Z,13.23
2023-05-15T08:26:07.551Z,13.37
2023-05-15T08:28:35.038Z,13.47
2023-05-15T08:31:02.552Z,13.66
2023-05-15T08:33:30.112Z,13.98
2023-05-15T08:35:58.361Z,14.21
2023-05-15T08:38:25.913Z,14.35
2023-05-15T08:40:53.348Z,14.40
2023-05-15T08:43:20.841Z,14.47
2023-05-15T08:45:48.313Z,14.56
2023-05-15T08:48:16.121Z,14.58
2023-05-15T08:50:44.315Z,14.59
2023-05-15T08:53:11.896Z,14.57
2023-05-15T08:55:39.346Z,14.54
2023-05-15T08:58:07.362Z,14.50
2023-05-15T09:00:35.112Z,14.55
2023-05-15T09:03:02.695Z,14.58
2023-05-15T09:05:30.408Z,14.57
2023-05-15T09:07:57.993Z,14.50
2023-05-15T09:10:25.460Z,14.50
2023-05-15T09:12:53.034Z,14.56
2023-05-15T09:15:25.408Z,14.60
2023-05-15T09:17:53.398Z,14.64
2023-05-15T09:20:20.914Z,14.66
2023-05-15T09:22:48.405Z,14.72
2023-05-15T09:25:16.202Z,14.75
2023-05-15T09:27:43.848Z,14.80
2023-05-15T09:30:11.330Z,14.84
2023-05-15T09:32:38.834Z,14.89
2023-05-15T09:35:06.290Z,14.90
2023-05-15T09:37:33.813Z,14.91
2023-05-15T09:40:01.314Z,14.91
2023-05-15T09:42:28.779Z,14.95
2023-05-15T09:44:56.280Z,14.99
2023-05-15T09:47:24.212Z,15.03
2023-05-15T09:49:51.933Z,15.11
2023-05-15T09:52:19.441Z,15.09
2023-05-15T09:54:50.075Z,15.03
2023-05-15T09:57:18.429Z,15.01
2023-05-15T09:59:46.038Z,15.01
2023-05-15T10:02:13.654Z,15.08
2023-05-15T10:04:41.226Z,15.11
2023-05-15T10:07:10.065Z,15.06
2023-05-15T10:09:37.626Z,15.00
2023-05-15T10:12:05.118Z,14.95
2023-05-15T10:14:32.642Z,14.96
2023-05-15T10:17:00.193Z,15.00
2023-05-15T10:19:27.789Z,15.01
2023-05-15T10:21:55.503Z,15.02
2023-05-15T10:24:23.134Z,15.06
2023-05-15T10:26:50.675Z,15.08
2023-05-15T10:29:18.205Z,15.12
2023-05-15T10:31:45.943Z,15.18
2023-05-15T10:34:13.500Z,15.19
2023-05-15T10:36:41.039Z,15.11
2023-05-15T10:39:08.666Z,15.06
2023-05-15T10:41:36.240Z,15.01
2023-05-15T10:44:03.753Z,14.96
2023-05-15T10:46:31.303Z,14.92
2023-05-15T10:48:58.896Z,14.86
2023-05-15T10:51:27.614Z,14.77
2023-05-15T10:53:55.198Z,14.73
2023-05-15T10:56:22.897Z,14.70
2023-05-15T10:58:50.944Z,14.69
2023-05-15T11:01:18.551Z,14.70
2023-05-15T11:03:49.913Z,14.70
2023-05-15T11:06:18.535Z,14.73
2023-05-15T11:08:46.314Z,14.79
2023-05-15T11:11:13.875Z,14.86
2023-05-15T11:13:41.401Z,14.97
2023-05-15T11:16:12.070Z,15.05
2023-05-15T11:18:40.414Z,15.12
2023-05-15T11:21:08.278Z,15.20
2023-05-15T11:23:35.891Z,15.26
2023-05-15T11:26:03.865Z,15.30
2023-05-15T11:28:31.681Z,15.36
2023-05-15T11:30:59.558Z,15.41
2023-05-15T11:33:27.108Z,15.48
2023-05-15T11:35:54.648Z,15.53
2023-05-15T11:38:22.219Z,15.58
2023-05-15T11:40:49.852Z,15.68
2023-05-15T11:43:17.656Z,15.80
2023-05-15T11:45:45.186Z,15.87
2023-05-15T11:48:12.745Z,15.97
2023-05-15T11:50:40.424Z,16.10
2023-05-15T11:53:08.005Z,16.16
2023-05-15T11:55:35.659Z,16.16
2023-05-15T11:58:04.348Z,16.27
2023-05-15T12:00:32.205Z,16.42
2023-05-15T12:02:59.924Z,16.58
2023-05-15T12:05:27.570Z,16.70
2023-05-15T12:07:55.148Z,16.85
2023-05-15T12:10:22.889Z,17.02
2023-05-15T12:12:50.626Z,17.17
2023-05-15T12:15:18.181Z,17.28
2023-05-15T12:17:46.035Z,17.35
2023-05-15T12:20:13.821Z,17.38
2023-05-15T12:22:42.633Z,17.37
2023-05-15T12:25:11.332Z,17.32
2023-05-15T12:27:38.981Z,17.26
2023-05-15T12:30:06.703Z,17.23
2023-05-15T12:32:34.335Z,17.24
2023-05-15T12:35:01.941Z,17.26
2023-05-15T12:37:29.568Z,17.29
2023-05-15T12:39:57.089Z,17.33
2023-05-15T12:42:24.647Z,17.32
2023-05-15T12:44:55.134Z,17.28
2023-05-15T12:47:22.626Z,17.34
2023-05-15T12:49:50.188Z,17.35
2023-05-15T12:52:17.785Z,17.29
2023-05-15T12:54:46.081Z,17.31
2023-05-15T12:57:13.674Z,17.34
2023-05-15T12:59:41.397Z,17.39
2023-05-15T13:02:09.272Z,17.41
2023-05-15T13:04:36.938Z,17.49
2023-05-15T13:07:04.579Z,17.56
2023-05-15T13:09:33.346Z,17.55
2023-05-15T13:12:00.848Z,17.45
2023-05-15T13:14:29.799Z,17.41
2023-05-15T13:16:57.364Z,17.44
2023-05-15T13:19:24.882Z,17.45
2023-05-15T13:21:52.902Z,17.42
2023-05-15T13:24:20.595Z,17.36
2023-05-15T13:26:48.181Z,17.21
2023-05-15T13:29:15.881Z,17.03
2023-05-15T13:31:43.475Z,16.82
2023-05-15T13:34:11.086Z,16.65
2023-05-15T13:36:38.643Z,16.57
2023-05-15T13:39:06.568Z,16.61
2023-05-15T13:41:34.117Z,16.67
2023-05-15T13:44:01.693Z,16.70
2023-05-15T13:46:29.202Z,16.69
2023-05-15T13:48:57.119Z,16.71
2023-05-15T13:51:24.706Z,16.74
2023-05-15T13:53:52.618Z,16.75
2023-05-15T13:56:20.178Z,16.80
2023-05-15T13:58:48.002Z,16.86
2023-05-15T14:01:15.589Z,17.02
2023-05-15T14:03:43.343Z,17.23
2023-05-15T14:06:10.932Z,17.50
2023-05-15T14:08:38.436Z,17.74
2023-05-15T14:11:05.954Z,17.96
2023-05-15T14:13:33.503Z,18.12
2023-05-15T14:16:01.137Z,18.22
2023-05-15T14:18:29.955Z,18.33
2023-05-15T14:20:59.650Z,18.34
2023-05-15T14:23:27.172Z,18.33
2023-05-15T14:25:54.653Z,18.36
2023-05-15T14:28:22.277Z,18.38
2023-05-15T14:30:49.765Z,18.40
2023-05-15T14:33:17.455Z,18.24
2023-05-15T14:35:45.161Z,18.04
2023-05-15T14:38:12.637Z,17.96
2023-05-15T14:40:40.151Z,18.01
2023-05-15T14:43:08.014Z,18.13
2023-05-15T14:45:35.535Z,18.21
2023-05-15T14:48:03.332Z,18.20
2023-05-15T14:50:31.022Z,18.13
2023-05-15T14:52:58.670Z,18.05
2023-05-15T14:55:26.367Z,18.02
2023-05-15T14:57:54.088Z,17.92
2023-05-15T15:00:21.589Z,17.84
2023-05-15T15:02:49.190Z,17.76
2023-05-15T15:05:16.951Z,17.65
2023-05-15T15:07:44.453Z,17.49
2023-05-15T15:10:11.992Z,17.38
2023-05-15T15:12:39.546Z,17.25
2023-05-15T15:15:07.029Z,17.13
2023-05-15T15:17:34.569Z,17.06
2023-05-15T15:20:06.013Z,17.01
2023-05-15T15:22:33.551Z,16.93
2023-05-15T15:25:01.387Z,16.79
2023-05-15T15:27:29.163Z,16.68
2023-05-15T15:29:56.642Z,16.69
2023-05-15T15:32:24.246Z,16.62
2023-05-15T15:34:51.907Z,16.62
2023-05-15T15:37:19.414Z,16.60
2023-05-15T15:39:46.925Z,16.52
2023-05-15T15:42:14.462Z,16.53
2023-05-15T15:44:41.956Z,16.61
2023-05-15T15:47:09.466Z,16.66
2023-05-15T15:49:37.080Z,16.75
2023-05-15T15:52:04.567Z,16.84
2023-05-15T15:54:33.246Z,16.83
2023-05-15T15:57:01.179Z,16.84
2023-05-15T15:59:28.825Z,16.78
2023-05-15T16:01:56.330Z,16.80
2023-05-15T16:04:23.957Z,16.80
2023-05-15T16:06:51.482Z,16.64
2023-05-15T16:09:19.840Z,16.37
2023-05-15T16:11:47.429Z,16.14
2023-05-15T16:14:14.956Z,15.98
2023-05-15T16:16:42.446Z,15.81
2023-05-15T16:19:10.314Z,15.69
2023-05-15T16:21:37.851Z,15.54
2023-05-15T16:24:05.445Z,15.40
2023-05-15T16:26:33.049Z,15.38
2023-05-15T16:29:00.677Z,15.40
2023-05-15T16:31:28.215Z,15.49
2023-05-15T16:33:55.894Z,15.65
2023-05-15T16:36:23.334Z,15.79
2023-05-15T16:38:50.760Z,15.88
2023-05-15T16:41:18.692Z,15.81
2023-05-15T16:43:46.198Z,15.67
2023-05-15T16:46:13.748Z,15.63
2023-05-15T16:48:41.339Z,15.60
2023-05-15T16:51:09.056Z,15.53
2023-05-15T16:53:36.588Z,15.38
2023-05-15T16:56:04.593Z,15.30
2023-05-15T16:58:35.097Z,15.24
2023-05-15T17:01:02.644Z,15.19
2023-05-15T17:03:30.362Z,15.02
2023-05-15T17:05:57.942Z,14.90
2023-05-15T17:08:25.579Z,14.73
2023-05-15T17:10:53.087Z,14.60
2023-05-15T17:13:20.613Z,14.50
2023-05-15T17:15:49.757Z,14.35
2023-05-15T17:18:17.384Z,14.25
2023-05-15T17:20:45.001Z,14.20
2023-05-15T17:23:12.584Z,14.14
2023-05-15T17:26:05.833Z,14.08
2023-05-15T17:28:33.334Z,14.02
2023-05-15T17:31:00.837Z,13.93
2023-05-15T17:33:28.460Z,13.82
2023-05-15T17:35:55.956Z,13.75
2023-05-15T17:38:23.639Z,13.68
2023-05-15T17:40:52.434Z,13.64
2023-05-15T17:43:19.982Z,13.57
2023-05-15T17:45:47.568Z,13.51
2023-05-15T17:48:15.557Z,13.43
2023-05-15T17:50:42.999Z,13.35
2023-05-15T17:53:10.683Z,13.28
2023-05-15T17:55:38.248Z,13.27
2023-05-15T17:58:05.847Z,13.26
2023-05-15T18:00:33.423Z,13.20
2023-05-15T18:03:01.748Z,13.14
2023-05-15T18:05:29.483Z,13.09
2023-05-15T18:07:59.523Z,13.03
2023-05-15T18:10:27.008Z,12.99
2023-05-15T18:12:54.499Z,12.97
2023-05-15T18:15:22.146Z,12.93
2023-05-15T18:17:50.037Z,12.88
2023-05-15T18:20:17.673Z,12.87
2023-05-15T18:22:46.088Z,12.89
2023-05-15T18:25:13.671Z,12.89
2023-05-15T18:27:41.168Z,12.85
2023-05-15T18:30:08.633Z,12.81
2023-05-15T18:32:36.456Z,12.80
2023-05-15T18:35:03.969Z,12.79
2023-05-15T18:37:31.451Z,12.76
2023-05-15T18:39:59.191Z,12.71
2023-05-15T18:42:26.699Z,12.63
2023-05-15T18:44:54.270Z,12.60
2023-05-15T18:47:21.884Z,12.58
2023-05-15T18:49:49.383Z,12.52
2023-05-15T18:52:18.692Z,12.46
2023-05-15T18:54:46.438Z,12.39
2023-05-15T18:57:17.074Z,12.34
2023-05-15T18:59:44.590Z,12.32
2023-05-15T19:02:12.303Z,12.27
2023-05-15T19:04:39.873Z,12.24
2023-05-15T19:07:07.364Z,12.22
2023-05-15T19:09:35.228Z,12.17
2023-05-15T19:12:02.986Z,12.12
2023-05-15T19:14:30.487Z,12.11
2023-05-15T19:16:58.152Z,12.09
2023-05-15T19:19:25.990Z,12.06
2023-05-15T19:21:53.653Z,12.01
2023-05-15T19:24:21.185Z,11.96
2023-05-15T19:26:48.991Z,11.90
2023-05-15T19:29:16.471Z,11.87
2023-05-15T19:31:44.184Z,11.80
2023-05-15T19:34:11.650Z,11.72
2023-05-15T19:36:39.268Z,11.68
2023-05-15T19:39:06.753Z,11.62
2023-05-15T19:41:34.229Z,11.59
2023-05-15T19:44:01.680Z,11.58
2023-05-15T19:46:29.656Z,11.50
2023-05-15T19:48:57.335Z,11.44
2023-05-15T19:51:24.866Z,11.39
2023-05-15T19:53:52.469Z,11.32
2023-05-15T19:56:21.496Z,11.28
2023-05-15T19:58:49.083Z,11.26
2023-05-15T20:01:16.659Z,11.27
2023-05-15T20:03:44.317Z,11.26
2023-05-15T20:06:14.832Z,11.24
2023-05-15T20:08:42.474Z,11.22
2023-05-15T20:11:09.935Z,11.21
2023-05-15T20:13:38.353Z,11.20
2023-05-15T20:16:10.678Z,11.18
2023-05-15T20:18:39.730Z,11.16
2023-05-15T20:21:07.395Z,11.13
2023-05-15T20:23:35.286Z,11.09
2023-05-15T20:26:02.822Z,11.06
2023-05-15T20:28:30.608Z,11.02
2023-05-15T20:30:58.466Z,10.99
2023-05-15T20:33:26.073Z,10.97
2023-05-15T20:35:54.059Z,10.96
2023-05-15T20:38:21.666Z,10.95
2023-05-15T20:40:49.131Z,10.93
2023-05-15T20:43:16.605Z,10.93
2023-05-15T20:45:44.134Z,10.93
2023-05-15T20:48:11.812Z,10.94
2023-05-15T20:50:39.723Z,10.94
2023-05-15T20:53:08.164Z,10.93
2023-05-15T20:55:35.686Z,10.88
2023-05-15T20:58:03.175Z,10.84
2023-05-15T21:00:30.997Z,10.81
2023-05-15T21:02:58.689Z,10.77
2023-05-15T21:05:26.349Z,10.72
2023-05-15T21:07:53.836Z,10.67
2023-05-15T21:10:21.329Z,10.63
2023-05-15T21:12:49.053Z,10.63
2023-05-15T21:15:18.558Z,10.62
2023-05-15T21:17:46.213Z,10.57
2023-05-15T21:20:13.710Z,10.43
2023-05-15T21:22:41.413Z,10.31
2023-05-15T21:25:08.997Z,10.24
2023-05-15T21:27:36.768Z,10.21
2023-05-15T21:30:04.311Z,10.18
2023-05-15T21:32:31.954Z,10.11
2023-05-15T21:34:59.452Z,10.02
2023-05-15T21:37:27.386Z,9.89
2023-05-15T21:39:54.927Z,9.81
2023-05-15T21:42:22.673Z,9.72
2023-05-15T21:44:50.223Z,9.69
2023-05-15T21:47:17.676Z,9.70
2023-05-15T21:49:45.275Z,9.73
2023-05-15T21:52:12.771Z,9.77
2023-05-15T21:54:40.413Z,9.80
2023-05-15T21:57:08.012Z,9.85
2023-05-15T21:59:35.577Z,9.86
2023-05-15T22:02:03.146Z,9.85
2023-05-15T22:04:30.714Z,9.84
2023-05-15T22:06:58.522Z,9.82
2023-05-15T22:09:26.002Z,9.81
2023-05-15T22:11:53.603Z,9.78
2023-05-15T22:14:21.163Z,9.76
2023-05-15T22:16:48.900Z,9.69
2023-05-15T22:19:29.019Z,9.63
2023-05-15T22:22:00.646Z,9.58
2023-05-15T22:24:28.216Z,9.56
2023-05-15T22:26:55.879Z,9.53
2023-05-15T22:29:23.475Z,9.48
2023-05-15T22:31:51.176Z,9.47
2023-05-15T22:34:18.741Z,9.48
2023-05-15T22:36:46.302Z,9.49
2023-05-15T22:39:14.109Z,9.53
2023-05-15T22:41:41.738Z,9.54
2023-05-15T22:44:09.371Z,9.55
2023-05-15T22:46:37.125Z,9.55
2023-05-15T22:49:04.678Z,9.55
2023-05-15T22:51:32.192Z,9.53
2023-05-15T22:53:59.763Z,9.53
2023-05-15T22:56:27.527Z,9.53
2023-05-15T22:58:56.315Z,9.52
2023-05-15T23:01:23.940Z,9.45
2023-05-15T23:03:51.610Z,9.39
2023-05-15T23:06:19.427Z,9.35
2023-05-15T23:08:47.114Z,9.30
2023-05-15T23:11:14.678Z,9.24
2023-05-15T23:13:42.343Z,9.19
2023-05-15T23:16:09.953Z,9.09
2023-05-15T23:18:37.705Z,9.00
2023-05-15T23:21:05.384Z,8.95
2023-05-15T23:23:32.856Z,8.91
2023-05-15T23:26:00.359Z,8.88
2023-05-15T23:28:27.837Z,8.81
2023-05-15T23:30:55.474Z,8.78
2023-05-15T23:33:23.025Z,8.68
2023-05-15T23:35:50.554Z,8.54
2023-05-15T23:38:18.023Z,8.44
2023-05-15T23:40:45.644Z,8.37
2023-05-15T23:43:13.177Z,8.37
2023-05-15T23:45:40.723Z,8.39
2023-05-15T23:48:08.257Z,8.38
2023-05-15T23:50:35.920Z,8.38
2023-05-15T23:53:03.649Z,8.37
2023-05-15T23:55:31.123Z,8.33
2023-05-15T23:57:58.958Z,8.30
